sensor_id;sensor_type;location;lat;lon;timestamp;P1;durP1;ratioP1;P2;durP2;ratioP2
21347;SDS011;66030;53.582;9.746;2024-01-06T00:02:12;4.22;;;2.50;;
21347;SDS011;66030;53.582;9.746;2024-01-06T00:04:40;6.03;;;2.88;;
21347;SDS011;66030;53.582;9.746;2024-01-06T00:07:08;4.05;;;2.42;;
21347;SDS011;66030;53.582;9.746;2024-01-06T00:09:36;6.03;;;2.78;;
21347;SDS011;66030;53.582;9.746;2024-01-06T00:12:04;6.22;;;3.33;;
21347;SDS011;66030;53.582;9.746;2024-01-06T00:14:33;6.55;;;3.15;;
21347;SDS011;66030;53.582;9.746;2024-01-06T00:17:01;6.47;;;2.97;;
21347;SDS011;66030;53.582;9.746;2024-01-06T00:19:30;5.03;;;2.80;;
21347;SDS011;66030;53.582;9.746;2024-01-06T00:21:58;4.55;;;2.55;;
21347;SDS011;66030;53.582;9.746;2024-01-06T00:24:27;5.25;;;2.47;;
21347;SDS011;66030;53.582;9.746;2024-01-06T00:26:55;6.13;;;3.15;;
21347;SDS011;66030;53.582;9.746;2024-01-06T00:29:22;4.90;;;2.75;;
21347;SDS011;66030;53.582;9.746;2024-01-06T00:31:50;6.40;;;2.88;;
21347;SDS011;66030;53.582;9.746;2024-01-06T00:34:18;5.03;;;2.70;;
21347;SDS011;66030;53.582;9.746;2024-01-06T00:36:48;7.38;;;3.47;;
21347;SDS011;66030;53.582;9.746;2024-01-06T00:39:16;4.57;;;2.55;;
21347;SDS011;66030;53.582;9.746;2024-01-06T00:41:44;6.43;;;2.92;;
21347;SDS011;66030;53.582;9.746;2024-01-06T00:44:12;5.50;;;2.95;;
21347;SDS011;66030;53.582;9.746;2024-01-06T00:46:40;4.88;;;2.88;;
21347;SDS011;66030;53.582;9.746;2024-01-06T00:49:08;6.93;;;3.03;;
21347;SDS011;66030;53.582;9.746;2024-01-06T00:51:37;6.30;;;3.22;;
21347;SDS011;66030;53.582;9.746;2024-01-06T00:54:07;7.20;;;2.97;;
21347;SDS011;66030;53.582;9.746;2024-01-06T00:56:34;6.25;;;2.65;;
21347;SDS011;66030;53.582;9.746;2024-01-06T00:59:02;4.78;;;2.88;;
21347;SDS011;66030;53.582;9.746;2024-01-06T01:01:30;4.95;;;2.83;;
21347;SDS011;66030;53.582;9.746;2024-01-06T01:03:58;4.80;;;2.40;;
21347;SDS011;66030;53.582;9.746;2024-01-06T01:06:27;4.85;;;2.72;;
21347;SDS011;66030;53.582;9.746;2024-01-06T01:08:55;4.13;;;2.63;;
21347;SDS011;66030;53.582;9.746;2024-01-06T01:11:24;4.75;;;2.78;;
21347;SDS011;66030;53.582;9.746;2024-01-06T01:13:52;4.75;;;2.92;;
21347;SDS011;66030;53.582;9.746;2024-01-06T01:16:20;3.88;;;2.20;;
21347;SDS011;66030;53.582;9.746;2024-01-06T01:18:48;3.95;;;2.65;;
21347;SDS011;66030;53.582;9.746;2024-01-06T01:21:16;4.85;;;2.70;;
21347;SDS011;66030;53.582;9.746;2024-01-06T01:23:44;3.90;;;2.60;;
21347;SDS011;66030;53.582;9.746;2024-01-06T01:26:12;5.00;;;2.90;;
21347;SDS011;66030;53.582;9.746;2024-01-06T01:28:41;4.45;;;2.30;;
21347;SDS011;66030;53.582;9.746;2024-01-06T01:31:09;4.30;;;2.42;;
21347;SDS011;66030;53.582;9.746;2024-01-06T01:33:37;4.75;;;2.58;;
21347;SDS011;66030;53.582;9.746;2024-01-06T01:36:06;3.97;;;2.25;;
21347;SDS011;66030;53.582;9.746;2024-01-06T01:38:34;4.40;;;2.92;;
21347;SDS011;66030;53.582;9.746;2024-01-06T01:41:02;5.05;;;2.28;;
21347;SDS011;66030;53.582;9.746;2024-01-06T01:43:30;4.85;;;2.50;;
21347;SDS011;66030;53.582;9.746;2024-01-06T01:45:59;5.40;;;2.85;;
21347;SDS011;66030;53.582;9.746;2024-01-06T01:48:27;4.95;;;2.95;;
21347;SDS011;66030;53.582;9.746;2024-01-06T01:50:55;4.72;;;2.60;;
21347;SDS011;66030;53.582;9.746;2024-01-06T01:53:23;5.25;;;2.97;;
21347;SDS011;66030;53.582;9.746;2024-01-06T01:55:52;4.53;;;2.90;;
21347;SDS011;66030;53.582;9.746;2024-01-06T01:58:21;4.05;;;2.45;;
21347;SDS011;66030;53.582;9.746;2024-01-06T02:00:49;4.25;;;2.38;;
21347;SDS011;66030;53.582;9.746;2024-01-06T02:03:18;5.10;;;2.67;;
21347;SDS011;66030;53.582;9.746;2024-01-06T02:05:47;5.13;;;2.75;;
21347;SDS011;66030;53.582;9.746;2024-01-06T02:08:14;4.55;;;3.03;;
21347;SDS011;66030;53.582;9.746;2024-01-06T02:10:42;5.97;;;3.13;;
21347;SDS011;66030;53.582;9.746;2024-01-06T02:13:10;5.38;;;2.85;;
21347;SDS011;66030;53.582;9.746;2024-01-06T02:15:39;6.22;;;3.13;;
21347;SDS011;66030;53.582;9.746;2024-01-06T02:18:07;5.63;;;3.30;;
21347;SDS011;66030;53.582;9.746;2024-01-06T02:20:37;5.75;;;3.30;;
21347;SDS011;66030;53.582;9.746;2024-01-06T02:23:08;6.15;;;3.10;;
21347;SDS011;66030;53.582;9.746;2024-01-06T02:25:36;6.28;;;3.30;;
21347;SDS011;66030;53.582;9.746;2024-01-06T02:28:04;7.63;;;3.47;;
21347;SDS011;66030;53.582;9.746;2024-01-06T02:30:32;7.35;;;3.13;;
21347;SDS011;66030;53.582;9.746;2024-01-06T02:33:00;5.53;;;2.97;;
21347;SDS011;66030;53.582;9.746;2024-01-06T02:35:28;7.63;;;3.17;;
21347;SDS011;66030;53.582;9.746;2024-01-06T02:37:56;8.00;;;3.17;;
21347;SDS011;66030;53.582;9.746;2024-01-06T02:40:25;5.03;;;2.80;;
21347;SDS011;66030;53.582;9.746;2024-01-06T02:42:53;4.18;;;2.47;;
21347;SDS011;66030;53.582;9.746;2024-01-06T02:45:21;5.28;;;3.17;;
21347;SDS011;66030;53.582;9.746;2024-01-06T02:47:49;5.43;;;3.33;;
21347;SDS011;66030;53.582;9.746;2024-01-06T02:50:17;5.85;;;3.85;;
21347;SDS011;66030;53.582;9.746;2024-01-06T02:52:45;6.32;;;3.58;;
21347;SDS011;66030;53.582;9.746;2024-01-06T02:55:14;5.78;;;3.38;;
21347;SDS011;66030;53.582;9.746;2024-01-06T02:57:43;6.00;;;3.75;;
21347;SDS011;66030;53.582;9.746;2024-01-06T03:00:11;5.10;;;2.92;;
21347;SDS011;66030;53.582;9.746;2024-01-06T03:02:40;5.60;;;3.38;;
21347;SDS011;66030;53.582;9.746;2024-01-06T03:05:09;8.15;;;3.65;;
21347;SDS011;66030;53.582;9.746;2024-01-06T03:07:37;8.30;;;3.80;;
21347;SDS011;66030;53.582;9.746;2024-01-06T03:10:05;6.57;;;3.92;;
21347;SDS011;66030;53.582;9.746;2024-01-06T03:12:33;7.43;;;3.70;;
21347;SDS011;66030;53.582;9.746;2024-01-06T03:15:02;7.32;;;4.28;;
21347;SDS011;66030;53.582;9.746;2024-01-06T03:17:30;7.80;;;4.18;;
21347;SDS011;66030;53.582;9.746;2024-01-06T03:19:58;8.85;;;3.83;;
21347;SDS011;66030;53.582;9.746;2024-01-06T03:22:26;6.50;;;3.92;;
21347;SDS011;66030;53.582;9.746;2024-01-06T03:24:54;7.10;;;3.60;;
21347;SDS011;66030;53.582;9.746;2024-01-06T03:27:22;7.53;;;4.35;;
21347;SDS011;66030;53.582;9.746;2024-01-06T03:29:50;8.82;;;3.80;;
21347;SDS011;66030;53.582;9.746;2024-01-06T03:32:20;6.75;;;4.10;;
21347;SDS011;66030;53.582;9.746;2024-01-06T03:34:48;7.25;;;4.13;;
21347;SDS011;66030;53.582;9.746;2024-01-06T03:37:16;8.90;;;3.90;;
21347;SDS011;66030;53.582;9.746;2024-01-06T03:39:43;6.45;;;3.83;;
21347;SDS011;66030;53.582;9.746;2024-01-06T03:42:12;7.80;;;3.92;;
21347;SDS011;66030;53.582;9.746;2024-01-06T03:44:40;8.38;;;4.10;;
21347;SDS011;66030;53.582;9.746;2024-01-06T03:47:08;9.18;;;4.65;;
21347;SDS011;66030;53.582;9.746;2024-01-06T03:49:37;8.57;;;4.30;;
21347;SDS011;66030;53.582;9.746;2024-01-06T03:52:05;8.50;;;4.63;;
21347;SDS011;66030;53.582;9.746;2024-01-06T03:54:33;8.55;;;4.40;;
21347;SDS011;66030;53.582;9.746;2024-01-06T03:57:01;8.82;;;4.68;;
21347;SDS011;66030;53.582;9.746;2024-01-06T03:59:29;8.05;;;4.28;;
21347;SDS011;66030;53.582;9.746;2024-01-06T04:01:57;8.25;;;4.72;;
21347;SDS011;66030;53.582;9.746;2024-01-06T04:04:25;7.47;;;4.57;;
21347;SDS011;66030;53.582;9.746;2024-01-06T04:06:55;7.35;;;3.85;;
21347;SDS011;66030;53.582;9.746;2024-01-06T04:09:23;9.85;;;5.03;;
21347;SDS011;66030;53.582;9.746;2024-01-06T04:11:51;9.32;;;4.22;;
21347;SDS011;66030;53.582;9.746;2024-01-06T04:14:19;8.00;;;4.10;;
21347;SDS011;66030;53.582;9.746;2024-01-06T04:16:47;9.15;;;4.25;;
21347;SDS011;66030;53.582;9.746;2024-01-06T04:19:15;8.23;;;4.72;;
21347;SDS011;66030;53.582;9.746;2024-01-06T04:21:42;7.03;;;3.72;;
21347;SDS011;66030;53.582;9.746;2024-01-06T04:24:12;7.25;;;4.10;;
21347;SDS011;66030;53.582;9.746;2024-01-06T04:26:40;7.30;;;4.70;;
21347;SDS011;66030;53.582;9.746;2024-01-06T04:29:11;7.10;;;4.05;;
21347;SDS011;66030;53.582;9.746;2024-01-06T04:31:39;8.50;;;4.90;;
21347;SDS011;66030;53.582;9.746;2024-01-06T04:34:08;9.45;;;4.50;;
21347;SDS011;66030;53.582;9.746;2024-01-06T04:36:36;7.63;;;4.25;;
21347;SDS011;66030;53.582;9.746;2024-01-06T04:39:04;8.68;;;4.75;;
21347;SDS011;66030;53.582;9.746;2024-01-06T04:41:33;9.55;;;4.50;;
21347;SDS011;66030;53.582;9.746;2024-01-06T04:44:01;6.68;;;4.05;;
21347;SDS011;66030;53.582;9.746;2024-01-06T04:46:29;8.63;;;4.78;;
21347;SDS011;66030;53.582;9.746;2024-01-06T04:48:57;6.63;;;4.07;;
21347;SDS011;66030;53.582;9.746;2024-01-06T04:51:25;7.40;;;4.45;;
21347;SDS011;66030;53.582;9.746;2024-01-06T04:53:53;7.30;;;4.13;;
21347;SDS011;66030;53.582;9.746;2024-01-06T04:56:21;9.20;;;4.43;;
21347;SDS011;66030;53.582;9.746;2024-01-06T04:58:50;8.68;;;4.65;;
21347;SDS011;66030;53.582;9.746;2024-01-06T05:01:18;6.13;;;3.42;;
21347;SDS011;66030;53.582;9.746;2024-01-06T05:03:47;8.02;;;3.40;;
21347;SDS011;66030;53.582;9.746;2024-01-06T05:06:15;8.30;;;4.45;;
21347;SDS011;66030;53.582;9.746;2024-01-06T05:08:43;7.10;;;4.32;;
21347;SDS011;66030;53.582;9.746;2024-01-06T05:11:11;8.52;;;4.22;;
21347;SDS011;66030;53.582;9.746;2024-01-06T05:13:39;10.45;;;4.40;;
21347;SDS011;66030;53.582;9.746;2024-01-06T05:16:09;8.15;;;3.88;;
21347;SDS011;66030;53.582;9.746;2024-01-06T05:18:36;6.65;;;4.00;;
21347;SDS011;66030;53.582;9.746;2024-01-06T05:21:05;8.45;;;4.40;;
21347;SDS011;66030;53.582;9.746;2024-01-06T05:23:32;6.80;;;4.15;;
21347;SDS011;66030;53.582;9.746;2024-01-06T05:26:00;5.93;;;4.13;;
21347;SDS011;66030;53.582;9.746;2024-01-06T05:28:28;8.55;;;4.68;;
21347;SDS011;66030;53.582;9.746;2024-01-06T05:30:59;8.77;;;4.82;;
21347;SDS011;66030;53.582;9.746;2024-01-06T05:33:29;9.93;;;4.32;;
21347;SDS011;66030;53.582;9.746;2024-01-06T05:35:57;7.47;;;3.90;;
21347;SDS011;66030;53.582;9.746;2024-01-06T05:38:25;8.38;;;4.38;;
21347;SDS011;66030;53.582;9.746;2024-01-06T05:40:53;7.25;;;4.25;;
21347;SDS011;66030;53.582;9.746;2024-01-06T05:43:21;8.65;;;4.63;;
21347;SDS011;66030;53.582;9.746;2024-01-06T05:45:49;10.77;;;4.78;;
21347;SDS011;66030;53.582;9.746;2024-01-06T05:48:17;5.97;;;4.00;;
21347;SDS011;66030;53.582;9.746;2024-01-06T05:50:46;8.20;;;4.18;;
21347;SDS011;66030;53.582;9.746;2024-01-06T05:53:14;8.63;;;4.65;;
21347;SDS011;66030;53.582;9.746;2024-01-06T05:55:44;8.45;;;4.53;;
21347;SDS011;66030;53.582;9.746;2024-01-06T05:58:12;7.85;;;4.63;;
21347;SDS011;66030;53.582;9.746;2024-01-06T06:00:40;8.68;;;4.63;;
21347;SDS011;66030;53.582;9.746;2024-01-06T06:03:08;8.70;;;4.53;;
21347;SDS011;66030;53.582;9.746;2024-01-06T06:05:36;7.70;;;4.30;;
21347;SDS011;66030;53.582;9.746;2024-01-06T06:08:05;8.32;;;4.40;;
21347;SDS011;66030;53.582;9.746;2024-01-06T06:10:33;7.78;;;4.15;;
21347;SDS011;66030;53.582;9.746;2024-01-06T06:13:18;9.18;;;4.50;;
21347;SDS011;66030;53.582;9.746;2024-01-06T06:15:46;7.65;;;4.15;;
21347;SDS011;66030;53.582;9.746;2024-01-06T06:18:14;7.43;;;4.47;;
21347;SDS011;66030;53.582;9.746;2024-01-06T06:20:42;9.18;;;4.53;;
21347;SDS011;66030;53.582;9.746;2024-01-06T06:23:11;9.05;;;4.85;;
21347;SDS011;66030;53.582;9.746;2024-01-06T06:25:39;10.02;;;5.18;;
21347;SDS011;66030;53.582;9.746;2024-01-06T06:28:07;10.32;;;5.28;;
21347;SDS011;66030;53.582;9.746;2024-01-06T06:30:35;9.95;;;5.97;;
21347;SDS011;66030;53.582;9.746;2024-01-06T06:33:04;11.55;;;5.47;;
21347;SDS011;66030;53.582;9.746;2024-01-06T06:35:32;10.32;;;5.13;;
21347;SDS011;66030;53.582;9.746;2024-01-06T06:38:00;9.52;;;4.80;;
21347;SDS011;66030;53.582;9.746;2024-01-06T06:40:29;8.77;;;5.32;;
21347;SDS011;66030;53.582;9.746;2024-01-06T06:42:57;8.93;;;4.78;;
21347;SDS011;66030;53.582;9.746;2024-01-06T06:45:25;10.07;;;4.97;;
21347;SDS011;66030;53.582;9.746;2024-01-06T06:47:53;8.93;;;5.38;;
21347;SDS011;66030;53.582;9.746;2024-01-06T06:50:20;8.18;;;4.97;;
21347;SDS011;66030;53.582;9.746;2024-01-06T06:52:48;9.75;;;5.45;;
21347;SDS011;66030;53.582;9.746;2024-01-06T06:55:16;10.32;;;5.90;;
21347;SDS011;66030;53.582;9.746;2024-01-06T06:57:46;7.82;;;4.47;;
21347;SDS011;66030;53.582;9.746;2024-01-06T07:00:15;7.78;;;4.63;;
21347;SDS011;66030;53.582;9.746;2024-01-06T07:02:43;8.52;;;4.63;;
21347;SDS011;66030;53.582;9.746;2024-01-06T07:05:11;9.93;;;5.20;;
21347;SDS011;66030;53.582;9.746;2024-01-06T07:07:39;9.82;;;5.10;;
21347;SDS011;66030;53.582;9.746;2024-01-06T07:10:09;10.80;;;5.35;;
21347;SDS011;66030;53.582;9.746;2024-01-06T07:12:37;12.98;;;5.25;;
21347;SDS011;66030;53.582;9.746;2024-01-06T07:15:07;8.55;;;4.97;;
21347;SDS011;66030;53.582;9.746;2024-01-06T07:17:36;8.90;;;5.13;;
21347;SDS011;66030;53.582;9.746;2024-01-06T07:20:05;13.00;;;6.47;;
21347;SDS011;66030;53.582;9.746;2024-01-06T07:22:34;8.25;;;4.82;;
21347;SDS011;66030;53.582;9.746;2024-01-06T07:25:02;9.57;;;4.93;;
21347;SDS011;66030;53.582;9.746;2024-01-06T07:27:30;12.18;;;5.22;;
21347;SDS011;66030;53.582;9.746;2024-01-06T07:29:58;10.00;;;5.03;;
21347;SDS011;66030;53.582;9.746;2024-01-06T07:32:27;8.63;;;4.95;;
21347;SDS011;66030;53.582;9.746;2024-01-06T07:34:55;10.40;;;5.13;;
21347;SDS011;66030;53.582;9.746;2024-01-06T07:37:23;9.07;;;5.40;;
21347;SDS011;66030;53.582;9.746;2024-01-06T07:39:52;8.23;;;5.13;;
21347;SDS011;66030;53.582;9.746;2024-01-06T07:42:20;10.98;;;6.15;;
21347;SDS011;66030;53.582;9.746;2024-01-06T07:44:48;10.05;;;5.30;;
21347;SDS011;66030;53.582;9.746;2024-01-06T07:47:16;9.07;;;5.43;;
21347;SDS011;66030;53.582;9.746;2024-01-06T07:49:45;12.43;;;5.43;;
21347;SDS011;66030;53.582;9.746;2024-01-06T07:52:14;10.73;;;5.15;;
21347;SDS011;66030;53.582;9.746;2024-01-06T07:54:43;9.75;;;5.35;;
21347;SDS011;66030;53.582;9.746;2024-01-06T07:57:11;15.82;;;6.32;;
21347;SDS011;66030;53.582;9.746;2024-01-06T07:59:39;9.02;;;5.28;;
21347;SDS011;66030;53.582;9.746;2024-01-06T08:02:07;9.75;;;5.50;;
21347;SDS011;66030;53.582;9.746;2024-01-06T08:04:35;11.15;;;5.70;;
21347;SDS011;66030;53.582;9.746;2024-01-06T08:07:04;9.52;;;5.65;;
21347;SDS011;66030;53.582;9.746;2024-01-06T08:09:32;11.80;;;5.43;;
21347;SDS011;66030;53.582;9.746;2024-01-06T08:12:01;10.35;;;5.07;;
21347;SDS011;66030;53.582;9.746;2024-01-06T08:14:30;9.40;;;4.80;;
21347;SDS011;66030;53.582;9.746;2024-01-06T08:16:57;10.98;;;5.22;;
21347;SDS011;66030;53.582;9.746;2024-01-06T08:19:25;10.85;;;5.50;;
21347;SDS011;66030;53.582;9.746;2024-01-06T08:21:56;13.20;;;5.65;;
21347;SDS011;66030;53.582;9.746;2024-01-06T08:24:25;11.20;;;5.55;;
21347;SDS011;66030;53.582;9.746;2024-01-06T08:26:53;11.48;;;5.90;;
21347;SDS011;66030;53.582;9.746;2024-01-06T08:29:21;12.27;;;5.90;;
21347;SDS011;66030;53.582;9.746;2024-01-06T08:31:49;10.50;;;5.32;;
21347;SDS011;66030;53.582;9.746;2024-01-06T08:34:18;9.10;;;5.05;;
21347;SDS011;66030;53.582;9.746;2024-01-06T08:36:46;11.23;;;5.55;;
21347;SDS011;66030;53.582;9.746;2024-01-06T08:39:14;10.40;;;5.45;;
21347;SDS011;66030;53.582;9.746;2024-01-06T08:41:44;9.70;;;5.35;;
21347;SDS011;66030;53.582;9.746;2024-01-06T08:44:12;10.23;;;5.65;;
21347;SDS011;66030;53.582;9.746;2024-01-06T08:46:40;8.80;;;5.20;;
21347;SDS011;66030;53.582;9.746;2024-01-06T08:49:08;9.90;;;4.85;;
21347;SDS011;66030;53.582;9.746;2024-01-06T08:51:36;9.50;;;4.72;;
21347;SDS011;66030;53.582;9.746;2024-01-06T08:54:04;9.88;;;5.25;;
21347;SDS011;66030;53.582;9.746;2024-01-06T08:56:33;11.20;;;4.97;;
21347;SDS011;66030;53.582;9.746;2024-01-06T08:59:03;9.55;;;4.97;;
21347;SDS011;66030;53.582;9.746;2024-01-06T09:01:30;7.00;;;4.22;;
21347;SDS011;66030;53.582;9.746;2024-01-06T09:04:00;9.32;;;5.03;;
21347;SDS011;66030;53.582;9.746;2024-01-06T09:06:28;8.68;;;5.00;;
21347;SDS011;66030;53.582;9.746;2024-01-06T09:08:57;8.98;;;4.22;;
21347;SDS011;66030;53.582;9.746;2024-01-06T09:11:25;7.85;;;4.57;;
21347;SDS011;66030;53.582;9.746;2024-01-06T09:13:53;10.02;;;4.90;;
21347;SDS011;66030;53.582;9.746;2024-01-06T09:16:22;9.57;;;5.05;;
21347;SDS011;66030;53.582;9.746;2024-01-06T09:18:50;11.13;;;5.72;;
21347;SDS011;66030;53.582;9.746;2024-01-06T09:21:18;9.60;;;4.88;;
21347;SDS011;66030;53.582;9.746;2024-01-06T09:23:46;11.35;;;5.35;;
21347;SDS011;66030;53.582;9.746;2024-01-06T09:26:14;9.07;;;4.57;;
21347;SDS011;66030;53.582;9.746;2024-01-06T09:28:43;10.48;;;5.47;;
21347;SDS011;66030;53.582;9.746;2024-01-06T09:31:11;8.13;;;4.90;;
21347;SDS011;66030;53.582;9.746;2024-01-06T09:33:41;6.97;;;4.15;;
21347;SDS011;66030;53.582;9.746;2024-01-06T09:36:09;9.18;;;4.18;;
21347;SDS011;66030;53.582;9.746;2024-01-06T09:38:40;10.15;;;5.28;;
21347;SDS011;66030;53.582;9.746;2024-01-06T09:41:08;9.25;;;4.93;;
21347;SDS011;66030;53.582;9.746;2024-01-06T09:43:36;9.30;;;4.65;;
21347;SDS011;66030;53.582;9.746;2024-01-06T09:46:05;11.68;;;4.85;;
21347;SDS011;66030;53.582;9.746;2024-01-06T09:48:43;11.00;;;5.20;;
21347;SDS011;66030;53.582;9.746;2024-01-06T09:51:14;9.70;;;5.80;;
21347;SDS011;66030;53.582;9.746;2024-01-06T09:53:43;9.93;;;4.85;;
21347;SDS011;66030;53.582;9.746;2024-01-06T09:56:16;9.52;;;4.80;;
21347;SDS011;66030;53.582;9.746;2024-01-06T09:58:44;8.95;;;4.85;;
21347;SDS011;66030;53.582;9.746;2024-01-06T10:01:12;8.18;;;4.13;;
21347;SDS011;66030;53.582;9.746;2024-01-06T10:03:41;8.20;;;4.70;;
21347;SDS011;66030;53.582;9.746;2024-01-06T10:06:12;10.05;;;5.00;;
21347;SDS011;66030;53.582;9.746;2024-01-06T10:08:42;9.43;;;4.40;;
21347;SDS011;66030;53.582;9.746;2024-01-06T10:11:10;9.00;;;4.68;;
21347;SDS011;66030;53.582;9.746;2024-01-06T10:13:38;9.25;;;4.25;;
21347;SDS011;66030;53.582;9.746;2024-01-06T10:16:06;8.32;;;4.45;;
21347;SDS011;66030;53.582;9.746;2024-01-06T10:18:34;8.98;;;4.40;;
21347;SDS011;66030;53.582;9.746;2024-01-06T10:21:04;8.07;;;4.38;;
21347;SDS011;66030;53.582;9.746;2024-01-06T10:23:33;11.68;;;5.70;;
21347;SDS011;66030;53.582;9.746;2024-01-06T10:26:03;11.52;;;4.78;;
21347;SDS011;66030;53.582;9.746;2024-01-06T10:28:31;10.65;;;5.05;;
21347;SDS011;66030;53.582;9.746;2024-01-06T10:30:59;10.60;;;4.85;;
21347;SDS011;66030;53.582;9.746;2024-01-06T10:33:28;10.63;;;5.20;;
21347;SDS011;66030;53.582;9.746;2024-01-06T10:35:58;10.27;;;4.85;;
21347;SDS011;66030;53.582;9.746;2024-01-06T10:38:29;10.93;;;5.15;;
21347;SDS011;66030;53.582;9.746;2024-01-06T10:40:57;11.25;;;4.97;;
21347;SDS011;66030;53.582;9.746;2024-01-06T10:43:26;8.75;;;5.47;;
21347;SDS011;66030;53.582;9.746;2024-01-06T10:45:55;13.90;;;5.68;;
21347;SDS011;66030;53.582;9.746;2024-01-06T10:48:26;10.43;;;4.97;;
21347;SDS011;66030;53.582;9.746;2024-01-06T10:50:59;8.65;;;4.57;;
21347;SDS011;66030;53.582;9.746;2024-01-06T10:53:29;8.40;;;4.82;;
21347;SDS011;66030;53.582;9.746;2024-01-06T10:55:59;10.73;;;4.70;;
21347;SDS011;66030;53.582;9.746;2024-01-06T10:58:29;10.55;;;5.57;;
21347;SDS011;66030;53.582;9.746;2024-01-06T11:01:00;11.18;;;5.50;;
21347;SDS011;66030;53.582;9.746;2024-01-06T11:03:28;11.00;;;4.88;;
21347;SDS011;66030;53.582;9.746;2024-01-06T11:05:58;8.65;;;4.53;;
21347;SDS011;66030;53.582;9.746;2024-01-06T11:08:26;8.82;;;4.95;;
21347;SDS011;66030;53.582;9.746;2024-01-06T11:10:58;10.18;;;4.80;;
21347;SDS011;66030;53.582;9.746;2024-01-06T11:13:26;7.68;;;4.00;;
21347;SDS011;66030;53.582;9.746;2024-01-06T11:15:54;9.27;;;4.40;;
21347;SDS011;66030;53.582;9.746;2024-01-06T11:18:35;11.07;;;4.85;;
21347;SDS011;66030;53.582;9.746;2024-01-06T11:21:18;8.90;;;4.28;;
21347;SDS011;66030;53.582;9.746;2024-01-06T11:24:06;9.38;;;4.38;;
21347;SDS011;66030;53.582;9.746;2024-01-06T11:26:38;8.45;;;4.15;;
21347;SDS011;66030;53.582;9.746;2024-01-06T11:29:06;8.80;;;4.57;;
21347;SDS011;66030;53.582;9.746;2024-01-06T11:31:36;8.35;;;4.63;;
21347;SDS011;66030;53.582;9.746;2024-01-06T11:34:12;8.07;;;4.32;;
21347;SDS011;66030;53.582;9.746;2024-01-06T11:36:43;9.75;;;4.50;;
21347;SDS011;66030;53.582;9.746;2024-01-06T11:42:04;8.38;;;4.07;;
21347;SDS011;66030;53.582;9.746;2024-01-06T11:47:04;7.35;;;3.83;;
21347;SDS011;66030;53.582;9.746;2024-01-06T11:49:33;8.60;;;4.38;;
21347;SDS011;66030;53.582;9.746;2024-01-06T11:52:02;8.77;;;4.32;;
21347;SDS011;66030;53.582;9.746;2024-01-06T11:54:31;7.68;;;4.10;;
21347;SDS011;66030;53.582;9.746;2024-01-06T11:57:01;9.82;;;3.78;;
21347;SDS011;66030;53.582;9.746;2024-01-06T11:59:28;8.40;;;3.78;;
21347;SDS011;66030;53.582;9.746;2024-01-06T12:01:56;8.13;;;3.85;;
21347;SDS011;66030;53.582;9.746;2024-01-06T12:04:25;6.97;;;3.80;;
21347;SDS011;66030;53.582;9.746;2024-01-06T12:07:04;8.57;;;3.65;;
21347;SDS011;66030;53.582;9.746;2024-01-06T12:09:33;8.02;;;3.63;;
21347;SDS011;66030;53.582;9.746;2024-01-06T12:12:04;7.35;;;4.00;;
21347;SDS011;66030;53.582;9.746;2024-01-06T12:14:33;5.90;;;3.42;;
21347;SDS011;66030;53.582;9.746;2024-01-06T12:17:00;9.73;;;4.10;;
21347;SDS011;66030;53.582;9.746;2024-01-06T12:19:30;5.95;;;3.20;;
21347;SDS011;66030;53.582;9.746;2024-01-06T12:22:03;5.68;;;3.22;;
21347;SDS011;66030;53.582;9.746;2024-01-06T12:24:31;5.60;;;3.40;;
21347;SDS011;66030;53.582;9.746;2024-01-06T12:26:59;5.88;;;3.42;;
21347;SDS011;66030;53.582;9.746;2024-01-06T12:29:28;5.75;;;2.90;;
21347;SDS011;66030;53.582;9.746;2024-01-06T12:31:58;6.05;;;3.03;;
21347;SDS011;66030;53.582;9.746;2024-01-06T12:34:27;5.93;;;3.65;;
21347;SDS011;66030;53.582;9.746;2024-01-06T12:36:55;6.15;;;3.08;;
21347;SDS011;66030;53.582;9.746;2024-01-06T12:39:22;6.75;;;3.30;;
21347;SDS011;66030;53.582;9.746;2024-01-06T12:41:54;5.57;;;3.08;;
21347;SDS011;66030;53.582;9.746;2024-01-06T12:44:22;5.32;;;3.03;;
21347;SDS011;66030;53.582;9.746;2024-01-06T12:46:51;6.72;;;3.20;;
21347;SDS011;66030;53.582;9.746;2024-01-06T12:49:19;6.00;;;3.13;;
21347;SDS011;66030;53.582;9.746;2024-01-06T12:51:48;4.80;;;3.05;;
21347;SDS011;66030;53.582;9.746;2024-01-06T12:54:16;9.13;;;3.60;;
21347;SDS011;66030;53.582;9.746;2024-01-06T12:56:45;5.70;;;2.90;;
21347;SDS011;66030;53.582;9.746;2024-01-06T12:59:13;5.57;;;3.10;;
21347;SDS011;66030;53.582;9.746;2024-01-06T13:01:41;4.55;;;2.78;;
21347;SDS011;66030;53.582;9.746;2024-01-06T13:04:11;4.63;;;2.60;;
21347;SDS011;66030;53.582;9.746;2024-01-06T13:06:39;5.07;;;2.65;;
21347;SDS011;66030;53.582;9.746;2024-01-06T13:09:07;6.00;;;2.80;;
21347;SDS011;66030;53.582;9.746;2024-01-06T13:14:06;5.07;;;2.72;;
21347;SDS011;66030;53.582;9.746;2024-01-06T13:16:34;4.50;;;2.67;;
21347;SDS011;66030;53.582;9.746;2024-01-06T13:19:03;5.15;;;2.92;;
21347;SDS011;66030;53.582;9.746;2024-01-06T13:21:33;7.70;;;2.67;;
21347;SDS011;66030;53.582;9.746;2024-01-06T13:24:01;5.88;;;3.15;;
21347;SDS011;66030;53.582;9.746;2024-01-06T13:26:30;6.28;;;2.80;;
21347;SDS011;66030;53.582;9.746;2024-01-06T13:28:58;5.88;;;2.78;;
21347;SDS011;66030;53.582;9.746;2024-01-06T13:31:27;18.33;;;8.02;;
21347;SDS011;66030;53.582;9.746;2024-01-06T13:33:57;6.30;;;3.13;;
21347;SDS011;66030;53.582;9.746;2024-01-06T13:36:25;7.38;;;3.15;;
21347;SDS011;66030;53.582;9.746;2024-01-06T13:38:55;6.03;;;3.13;;
21347;SDS011;66030;53.582;9.746;2024-01-06T13:41:26;5.68;;;2.50;;
21347;SDS011;66030;53.582;9.746;2024-01-06T13:43:54;4.30;;;2.65;;
21347;SDS011;66030;53.582;9.746;2024-01-06T13:46:22;4.45;;;2.65;;
21347;SDS011;66030;53.582;9.746;2024-01-06T13:48:51;4.97;;;2.90;;
21347;SDS011;66030;53.582;9.746;2024-01-06T13:51:19;4.53;;;2.50;;
21347;SDS011;66030;53.582;9.746;2024-01-06T13:53:47;4.43;;;2.80;;
21347;SDS011;66030;53.582;9.746;2024-01-06T13:56:16;4.10;;;2.38;;
21347;SDS011;66030;53.582;9.746;2024-01-06T13:58:44;6.05;;;2.97;;
21347;SDS011;66030;53.582;9.746;2024-01-06T14:01:13;4.82;;;2.65;;
21347;SDS011;66030;53.582;9.746;2024-01-06T14:03:42;5.75;;;2.90;;
21347;SDS011;66030;53.582;9.746;2024-01-06T14:06:11;6.70;;;2.90;;
21347;SDS011;66030;53.582;9.746;2024-01-06T14:08:39;6.43;;;3.10;;
21347;SDS011;66030;53.582;9.746;2024-01-06T14:11:07;4.60;;;2.42;;
21347;SDS011;66030;53.582;9.746;2024-01-06T14:13:37;4.38;;;2.33;;
21347;SDS011;66030;53.582;9.746;2024-01-06T14:16:05;6.00;;;2.92;;
21347;SDS011;66030;53.582;9.746;2024-01-06T14:18:34;4.60;;;3.03;;
21347;SDS011;66030;53.582;9.746;2024-01-06T14:21:02;5.65;;;2.63;;
21347;SDS011;66030;53.582;9.746;2024-01-06T14:23:31;5.38;;;2.63;;
21347;SDS011;66030;53.582;9.746;2024-01-06T14:25:59;6.18;;;2.70;;
21347;SDS011;66030;53.582;9.746;2024-01-06T14:28:27;6.55;;;2.88;;
21347;SDS011;66030;53.582;9.746;2024-01-06T14:30:56;5.55;;;2.90;;
21347;SDS011;66030;53.582;9.746;2024-01-06T14:33:24;4.65;;;2.40;;
21347;SDS011;66030;53.582;9.746;2024-01-06T14:35:53;5.35;;;2.83;;
21347;SDS011;66030;53.582;9.746;2024-01-06T14:38:20;4.03;;;2.40;;
21347;SDS011;66030;53.582;9.746;2024-01-06T14:40:48;10.55;;;5.28;;
21347;SDS011;66030;53.582;9.746;2024-01-06T14:43:16;4.53;;;2.85;;
21347;SDS011;66030;53.582;9.746;2024-01-06T14:45:44;13.43;;;6.85;;
21347;SDS011;66030;53.582;9.746;2024-01-06T14:48:13;4.90;;;2.65;;
21347;SDS011;66030;53.582;9.746;2024-01-06T14:50:42;6.60;;;3.58;;
21347;SDS011;66030;53.582;9.746;2024-01-06T14:53:09;7.63;;;3.08;;
21347;SDS011;66030;53.582;9.746;2024-01-06T14:55:37;5.95;;;3.67;;
21347;SDS011;66030;53.582;9.746;2024-01-06T14:58:05;5.25;;;3.03;;
21347;SDS011;66030;53.582;9.746;2024-01-06T15:00:35;5.07;;;2.60;;
21347;SDS011;66030;53.582;9.746;2024-01-06T15:03:04;8.77;;;3.58;;